Stations météo

Publicité
Briancon, France (7593): Température de l'air & dewpoint: 18.01.2021 06:00:00 - 24.01.2021 06:00:00 (CET)Briancon, France (7593): Vitesse du vent: 18.01.2021 06:00:00 - 24.01.2021 06:00:00 (CET)Briancon, France (7593): Direction du vent: 18.01.2021 06:00:00 - 24.01.2021 06:00:00 (CET)Briancon, France (7593): Quantités de précipitations: 18.01.2021 06:00:00 - 24.01.2021 06:00:00 (CET)
Date & Time tt [°C] td [°C] ff [km/h] ff [knt] dd rr [mm]
24.01.2021 06:00:00 -4,9 -6,4 2 1 ENE 0,0
24.01.2021 05:00:00 -3,2 -4,8 5 3 N 0,0
24.01.2021 04:00:00 -3,1 -4,5 4 2 NE 0,0
24.01.2021 03:00:00 -3,2 -4,6 4 2 ENE 0,0
24.01.2021 02:00:00 -3,0 -4,6 4 2 ENE 0,0
24.01.2021 01:00:00 -3,1 -4,5 9 5 NE 0,0
24.01.2021 00:00:00 -3,0 -4,1 4 2 ENE 0,0
23.01.2021 23:00:00 -3,0 -3,8 4 2 S 0,0
23.01.2021 22:00:00 -3,4 -4,4 4 2 E 0,0
23.01.2021 21:00:00 -3,3 -4,4 2 1 NE 0,0
23.01.2021 20:00:00 -2,6 -3,9 4 2 E 0,0
23.01.2021 19:00:00 -2,2 -3,8 6 3 E 0,0
23.01.2021 18:00:00 -2,3 -3,4 8 4 NE 0,2
23.01.2021 17:00:00 -2,4 -3,0 16 8 W 0,0
23.01.2021 16:00:00 -2,7 -3,4 17 9 W 0,2
23.01.2021 15:00:00 -2,8 -3,8 15 8 WSW 0,0
23.01.2021 14:00:00 -1,8 -5,8 17 9 SW 0,0
23.01.2021 13:00:00 -1,0 -6,4 14 7 SW 0,0
23.01.2021 12:00:00 -1,4 -6,7 6 3 NNE 0,0
23.01.2021 11:00:00 -5,1 -8,2 3 2 ENE 0,0
23.01.2021 10:00:00 -5,8 -7,3 4 2 E 0,0
23.01.2021 09:00:00 -5,1 -6,9 4 2 S 0,0
23.01.2021 08:00:00 -4,7 -8,5 5 3 SSW 0,0
23.01.2021 07:00:00 -4,3 -7,9 8 5 ESE 0,0
23.01.2021 06:00:00 -4,0 -8,9 6 4 E 0,0
23.01.2021 05:00:00 -1,9 -12,3 13 7 ENE 0,0
23.01.2021 04:00:00 -1,2 -12,8 10 5 NNE 0,0
23.01.2021 03:00:00 -1,3 -9,4 8 5 ENE 0,0
23.01.2021 02:00:00 -1,0 -9,4 18 10 NE 0,0
23.01.2021 01:00:00 -0,3 -9,2 18 10 NNE 0,0
23.01.2021 00:00:00 -0,1 -7,8 11 6 NNW 0,0
22.01.2021 23:00:00 0,0 -4,6 7 4 N 0,0
22.01.2021 22:00:00 1,5 -1,7 13 7 NE 0,0
22.01.2021 21:00:00 0,4 -0,7 17 9 E 0,0
22.01.2021 20:00:00 0,4 -1,4 13 7 NNE 0,0
22.01.2021 19:00:00 -0,2 -0,8 14 8 NNE 3,0
22.01.2021 18:00:00 -0,1 -0,5 17 9 NNE 0,8
22.01.2021 17:00:00 0,4 -1,4 22 12 NE 1,4
22.01.2021 16:00:00 0,5 -0,2 8 4 SE 1,4
22.01.2021 15:00:00 0,5 -0,2 8 4 S 1,4
22.01.2021 14:00:00 1,5 0,9 3 2 SSW 0,2
22.01.2021 13:00:00 1,2 0,5 2 1 WSW 1,4
22.01.2021 12:00:00 1,6 0,6 0 0 N 0,6
22.01.2021 11:00:00 2,0 1,3 3 2 ENE 0,0
22.01.2021 10:00:00 1,3 0,4 0 0 N 0,0
22.01.2021 09:00:00 1,1 0,5 2 1 SW 0,0
22.01.2021 08:00:00 1,1 0,5 0 0 N 0,0
22.01.2021 07:00:00 1,4 0,8 3 2 NNE 0,0
22.01.2021 06:00:00 1,9 1,0 6 3 ENE 0,0
22.01.2021 05:00:00 2,0 1,1 5 3 NE 0,0
22.01.2021 04:00:00 2,1 1,4 7 4 ENE 0,0
22.01.2021 03:00:00 2,2 1,5 6 3 ENE 0,0
22.01.2021 02:00:00 1,9 1,5 6 3 NNE 0,0
22.01.2021 01:00:00 1,8 1,2 3 1 ENE 0,4
22.01.2021 00:00:00 1,8 1,2 5 3 E 0,0
21.01.2021 23:00:00 1,6 0,9 4 2 SE 0,4
21.01.2021 22:00:00 1,6 0,9 3 2 NE 0,2
21.01.2021 21:00:00 1,2 0,5 3 2 N 0,0
21.01.2021 20:00:00 1,2 0,0 2 1 NNE 0,2
21.01.2021 19:00:00 1,5 0,2 2 1 NW 0,0
21.01.2021 18:00:00 1,5 0,5 2 1 W 0,0
21.01.2021 17:00:00 2,0 0,1 3 2 S 0,0
21.01.2021 16:00:00 2,6 -0,7 3 2 SSW 0,0
21.01.2021 15:00:00 3,3 -0,9 3 2 SW 0,0
21.01.2021 14:00:00 2,4 -1,2 0 0 N 0,0
21.01.2021 13:00:00 1,6 -1,7 2 1 SSW 0,0
21.01.2021 12:00:00 1,1 -2,0 0 0 N 0,0
21.01.2021 11:00:00 -0,4 -2,5 3 1 N 0,0
21.01.2021 10:00:00 -0,8 -2,8 3 1 NW 0,0
21.01.2021 09:00:00 -1,7 -2,8 4 2 NE 0,0
21.01.2021 08:00:00 -2,0 -3,1 0 0 N 0,0
21.01.2021 07:00:00 -1,8 -3,2 4 2 S 0,0
21.01.2021 06:00:00 -1,8 -3,7 4 2 WSW 0,2
21.01.2021 05:00:00 -1,6 -3,3 7 4 SW 0,2
21.01.2021 04:00:00 -2,3 -3,1 4 2 SSW 0,2
21.01.2021 03:00:00 -2,0 -3,0 5 3 SSW 0,0
21.01.2021 02:00:00 -1,5 -3,4 8 5 S 0,0
21.01.2021 01:00:00 0,3 -6,4 22 12 NE 0,0
21.01.2021 00:00:00 0,3 -6,8 16 9 ENE 0,0
20.01.2021 23:00:00 0,6 -7,0 19 10 NE 0,0
20.01.2021 22:00:00 -0,4 -6,4 6 3 WNW 0,0
20.01.2021 21:00:00 -1,5 -6,5 3 2 NNE 0,0
20.01.2021 20:00:00 -1,2 -6,6 4 2 S 0,0
20.01.2021 19:00:00 1,0 -6,3 9 5 E 0,0
20.01.2021 18:00:00 1,3 -6,1 8 4 SE 0,0
20.01.2021 17:00:00 3,1 -6,1 7 4 NE 0,0
20.01.2021 16:00:00 4,5 -4,3 8 4 NE 0,0
20.01.2021 15:00:00 4,3 -4,0 4 2 SE 0,0
20.01.2021 14:00:00 4,5 -5,6 5 3 SSW 0,0
20.01.2021 13:00:00 3,7 -6,0 4 2 WNW 0,0
20.01.2021 12:00:00 0,7 -7,8 3 2 ESE 0,0
20.01.2021 11:00:00 -4,9 -9,5 0 0 N 0,0
20.01.2021 10:00:00 -7,0 -10,2 3 2 ENE 0,0
20.01.2021 09:00:00 -7,6 -11,1 3 2 ENE 0,0
20.01.2021 08:00:00 -8,1 -11,4 0 0 N 0,0
20.01.2021 07:00:00 -8,9 -12,7 2 1 S 0,0
20.01.2021 06:00:00 -8,2 -12,4 0 0 N 0,0
20.01.2021 05:00:00 -7,7 -12,2 2 1 NE 0,0
20.01.2021 04:00:00 -7,9 -12,2 0 0 N 0,0
20.01.2021 03:00:00 -7,5 -12,0 0 0 N 0,0
20.01.2021 02:00:00 -7,1 -12,4 0 0 N 0,0
20.01.2021 01:00:00 -6,8 -12,1 3 1 E 0,0
20.01.2021 00:00:00 -6,5 -12,4 2 1 SSW 0,0
19.01.2021 23:00:00 -5,8 -11,7 0 0 N 0,0
19.01.2021 22:00:00 -5,6 -11,9 0 0 N 0,0
19.01.2021 21:00:00 -5,1 -11,7 3 1 ESE 0,0
19.01.2021 20:00:00 -4,3 -11,3 2 1 E 0,0
19.01.2021 19:00:00 -3,5 -11,5 0 0 N 0,0
19.01.2021 18:00:00 -2,7 -11,5 4 2 ESE 0,0
19.01.2021 17:00:00 0,3 -11,7 4 2 S 0,0
19.01.2021 16:00:00 4,8 -12,7 3 2 SW 0,0
19.01.2021 15:00:00 6,1 -11,5 4 2 SSW 0,0
19.01.2021 14:00:00 4,9 -12,6 2 1 W 0,0
19.01.2021 13:00:00 2,2 -11,0 0 0 N 0,0
19.01.2021 12:00:00 -0,3 -11,1 0 0 N 0,0
19.01.2021 11:00:00 -4,6 -11,6 0 0 N 0,0
19.01.2021 10:00:00 -6,8 -13,1 2 1 SSW 0,0
19.01.2021 09:00:00 -7,7 -13,0 0 0 N 0,0
19.01.2021 08:00:00 -8,0 -13,1 2 1 SSE 0,0
19.01.2021 07:00:00 -8,0 -13,2 0 0 N 0,0
19.01.2021 06:00:00 -8,2 -13,4 3 2 SSW 0,0
19.01.2021 05:00:00 -8,1 -13,5 0 0 N 0,0
19.01.2021 04:00:00 -7,9 -13,7 0 0 N 0,0
19.01.2021 03:00:00 -7,8 -13,6 0 0 N 0,0
19.01.2021 02:00:00 -7,9 -13,7 0 0 N 0,0
19.01.2021 01:00:00 -7,4 -14,1 0 0 N 0,0
19.01.2021 00:00:00 -7,6 -14,0 2 1 WNW 0,0
18.01.2021 23:00:00 -6,9 -14,2 0 0 N 0,0
18.01.2021 22:00:00 -6,3 -13,9 3 1 E 0,0
18.01.2021 21:00:00 -5,6 -12,8 2 1 S 0,0
18.01.2021 20:00:00 -5,5 -12,5 0 0 N 0,0
18.01.2021 19:00:00 -4,6 -12,5 3 2 ENE 0,0
18.01.2021 18:00:00 -3,2 -12,4 2 1 SE 0,0
18.01.2021 17:00:00 -0,1 -12,1 2 1 NNW 0,0
18.01.2021 16:00:00 2,3 -12,7 2 1 WSW 0,0
18.01.2021 15:00:00 4,5 -20,0 8 4 NE 0,0
18.01.2021 14:00:00 4,3 -19,4 6 3 S 0,0
18.01.2021 13:00:00 2,1 -14,6 4 2 WNW 0,0
18.01.2021 12:00:00 -0,5 -14,1 5 3 SW 0,0
18.01.2021 11:00:00 -5,9 -14,7 4 2 SSE 0,0
18.01.2021 10:00:00 -7,6 -15,1 4 2 S 0,0
18.01.2021 09:00:00 -8,2 -14,6 5 3 SSE 0,0
18.01.2021 08:00:00 -8,5 -14,9 3 1 NE 0,0
18.01.2021 07:00:00 -8,5 -14,9 4 2 S 0,0
18.01.2021 06:00:00 -7,9 -14,9 5 3 SW 0,0

tt = Température de l'air
td = dewpoint
ff = Vitesse du vent
dd = Direction du vent
rr = Quantités de précipitations

stations d'obs. à proximité